sensor_id;sensor_type;location;lat;lon;timestamp;P1;durP1;ratioP1;P2;durP2;ratioP2
11222;SDS011;5668;52.012;8.724;2022-11-20T00:00:40;20.63;;;16.60;;
11222;SDS011;5668;52.012;8.724;2022-11-20T00:03:08;19.43;;;16.43;;
11222;SDS011;5668;52.012;8.724;2022-11-20T00:05:36;22.67;;;16.53;;
11222;SDS011;5668;52.012;8.724;2022-11-20T00:08:03;19.40;;;16.17;;
11222;SDS011;5668;52.012;8.724;2022-11-20T00:10:30;19.43;;;16.00;;
11222;SDS011;5668;52.012;8.724;2022-11-20T00:12:58;16.70;;;14.77;;
11222;SDS011;5668;52.012;8.724;2022-11-20T00:15:25;18.00;;;14.87;;
11222;SDS011;5668;52.012;8.724;2022-11-20T00:17:52;19.23;;;15.70;;
11222;SDS011;5668;52.012;8.724;2022-11-20T00:20:21;17.77;;;14.83;;
11222;SDS011;5668;52.012;8.724;2022-11-20T00:22:49;19.10;;;15.60;;
11222;SDS011;5668;52.012;8.724;2022-11-20T00:25:16;17.50;;;14.87;;
11222;SDS011;5668;52.012;8.724;2022-11-20T00:27:43;16.53;;;14.60;;
11222;SDS011;5668;52.012;8.724;2022-11-20T00:30:11;18.73;;;15.37;;
11222;SDS011;5668;52.012;8.724;2022-11-20T00:32:38;17.80;;;14.90;;
11222;SDS011;5668;52.012;8.724;2022-11-20T00:35:05;17.80;;;14.63;;
11222;SDS011;5668;52.012;8.724;2022-11-20T00:37:34;17.23;;;14.97;;
11222;SDS011;5668;52.012;8.724;2022-11-20T00:40:01;20.70;;;15.43;;
11222;SDS011;5668;52.012;8.724;2022-11-20T00:42:30;15.97;;;14.03;;
11222;SDS011;5668;52.012;8.724;2022-11-20T00:44:58;18.70;;;14.43;;
11222;SDS011;5668;52.012;8.724;2022-11-20T00:47:26;19.00;;;15.43;;
11222;SDS011;5668;52.012;8.724;2022-11-20T00:49:53;19.60;;;15.63;;
11222;SDS011;5668;52.012;8.724;2022-11-20T00:52:20;20.10;;;15.90;;
11222;SDS011;5668;52.012;8.724;2022-11-20T00:54:49;18.23;;;14.87;;
11222;SDS011;5668;52.012;8.724;2022-11-20T00:57:16;18.80;;;16.67;;
11222;SDS011;5668;52.012;8.724;2022-11-20T00:59:43;21.50;;;17.20;;
11222;SDS011;5668;52.012;8.724;2022-11-20T01:02:10;21.70;;;16.30;;
11222;SDS011;5668;52.012;8.724;2022-11-20T01:04:37;20.27;;;16.67;;
11222;SDS011;5668;52.012;8.724;2022-11-20T01:07:04;20.50;;;16.47;;
11222;SDS011;5668;52.012;8.724;2022-11-20T01:09:32;22.37;;;16.73;;
11222;SDS011;5668;52.012;8.724;2022-11-20T01:12:00;21.00;;;15.93;;
11222;SDS011;5668;52.012;8.724;2022-11-20T01:14:28;19.20;;;15.90;;
11222;SDS011;5668;52.012;8.724;2022-11-20T01:16:55;20.77;;;15.90;;
11222;SDS011;5668;52.012;8.724;2022-11-20T01:19:22;21.90;;;16.07;;
11222;SDS011;5668;52.012;8.724;2022-11-20T01:21:50;17.70;;;14.73;;
11222;SDS011;5668;52.012;8.724;2022-11-20T01:24:20;17.97;;;15.67;;
11222;SDS011;5668;52.012;8.724;2022-11-20T01:26:48;18.93;;;15.10;;
11222;SDS011;5668;52.012;8.724;2022-11-20T01:29:18;18.27;;;15.33;;
11222;SDS011;5668;52.012;8.724;2022-11-20T01:31:47;19.10;;;15.03;;
11222;SDS011;5668;52.012;8.724;2022-11-20T01:34:15;18.37;;;15.40;;
11222;SDS011;5668;52.012;8.724;2022-11-20T01:36:45;18.73;;;15.00;;
11222;SDS011;5668;52.012;8.724;2022-11-20T01:39:13;19.77;;;14.73;;
11222;SDS011;5668;52.012;8.724;2022-11-20T01:41:41;18.20;;;14.47;;
11222;SDS011;5668;52.012;8.724;2022-11-20T01:44:43;16.67;;;13.67;;
11222;SDS011;5668;52.012;8.724;2022-11-20T01:47:15;16.90;;;13.57;;
11222;SDS011;5668;52.012;8.724;2022-11-20T01:49:46;18.57;;;13.80;;
11222;SDS011;5668;52.012;8.724;2022-11-20T01:52:18;17.77;;;14.30;;
11222;SDS011;5668;52.012;8.724;2022-11-20T01:54:50;17.00;;;13.37;;
11222;SDS011;5668;52.012;8.724;2022-11-20T01:57:22;16.93;;;14.03;;
11222;SDS011;5668;52.012;8.724;2022-11-20T01:59:52;17.93;;;13.40;;
11222;SDS011;5668;52.012;8.724;2022-11-20T02:02:23;15.80;;;13.27;;
11222;SDS011;5668;52.012;8.724;2022-11-20T02:04:51;15.57;;;13.33;;
11222;SDS011;5668;52.012;8.724;2022-11-20T02:07:23;17.23;;;13.17;;
11222;SDS011;5668;52.012;8.724;2022-11-20T02:09:50;14.37;;;12.87;;
11222;SDS011;5668;52.012;8.724;2022-11-20T02:12:18;15.50;;;12.43;;
11222;SDS011;5668;52.012;8.724;2022-11-20T02:15:04;16.13;;;12.57;;
11222;SDS011;5668;52.012;8.724;2022-11-20T02:17:32;16.40;;;11.97;;
11222;SDS011;5668;52.012;8.724;2022-11-20T02:19:59;14.30;;;12.47;;
11222;SDS011;5668;52.012;8.724;2022-11-20T02:22:28;17.03;;;13.40;;
11222;SDS011;5668;52.012;8.724;2022-11-20T02:25:03;14.83;;;12.30;;
11222;SDS011;5668;52.012;8.724;2022-11-20T02:27:32;16.40;;;12.07;;
11222;SDS011;5668;52.012;8.724;2022-11-20T02:30:01;16.17;;;13.03;;
11222;SDS011;5668;52.012;8.724;2022-11-20T02:32:31;15.03;;;12.50;;
11222;SDS011;5668;52.012;8.724;2022-11-20T02:35:05;15.50;;;12.70;;
11222;SDS011;5668;52.012;8.724;2022-11-20T02:37:34;14.67;;;12.77;;
11222;SDS011;5668;52.012;8.724;2022-11-20T02:40:07;17.10;;;13.80;;
11222;SDS011;5668;52.012;8.724;2022-11-20T02:42:37;16.40;;;13.63;;
11222;SDS011;5668;52.012;8.724;2022-11-20T02:45:04;16.60;;;12.80;;
11222;SDS011;5668;52.012;8.724;2022-11-20T02:47:32;14.40;;;12.90;;
11222;SDS011;5668;52.012;8.724;2022-11-20T02:50:00;15.13;;;13.07;;
11222;SDS011;5668;52.012;8.724;2022-11-20T02:52:27;15.57;;;13.30;;
11222;SDS011;5668;52.012;8.724;2022-11-20T02:54:54;15.57;;;13.03;;
11222;SDS011;5668;52.012;8.724;2022-11-20T02:57:23;15.90;;;12.90;;
11222;SDS011;5668;52.012;8.724;2022-11-20T02:59:50;14.93;;;13.03;;
11222;SDS011;5668;52.012;8.724;2022-11-20T03:02:17;18.40;;;14.13;;
11222;SDS011;5668;52.012;8.724;2022-11-20T03:04:45;15.97;;;12.80;;
11222;SDS011;5668;52.012;8.724;2022-11-20T03:07:12;16.53;;;12.83;;
11222;SDS011;5668;52.012;8.724;2022-11-20T03:09:39;14.17;;;12.20;;
11222;SDS011;5668;52.012;8.724;2022-11-20T03:12:07;14.90;;;12.27;;
11222;SDS011;5668;52.012;8.724;2022-11-20T03:14:35;15.27;;;13.33;;
11222;SDS011;5668;52.012;8.724;2022-11-20T03:17:02;15.33;;;12.80;;
11222;SDS011;5668;52.012;8.724;2022-11-20T03:19:30;16.93;;;12.70;;
11222;SDS011;5668;52.012;8.724;2022-11-20T03:21:57;16.23;;;12.10;;
11222;SDS011;5668;52.012;8.724;2022-11-20T03:24:25;14.23;;;11.73;;
11222;SDS011;5668;52.012;8.724;2022-11-20T03:26:52;15.83;;;12.37;;
11222;SDS011;5668;52.012;8.724;2022-11-20T03:29:19;15.00;;;11.47;;
11222;SDS011;5668;52.012;8.724;2022-11-20T03:31:48;12.57;;;11.23;;
11222;SDS011;5668;52.012;8.724;2022-11-20T03:34:15;13.93;;;11.63;;
11222;SDS011;5668;52.012;8.724;2022-11-20T03:36:42;13.10;;;10.77;;
11222;SDS011;5668;52.012;8.724;2022-11-20T03:39:10;13.80;;;11.60;;
11222;SDS011;5668;52.012;8.724;2022-11-20T03:41:38;13.10;;;11.60;;
11222;SDS011;5668;52.012;8.724;2022-11-20T03:44:07;13.13;;;11.13;;
11222;SDS011;5668;52.012;8.724;2022-11-20T03:46:36;11.70;;;10.50;;
11222;SDS011;5668;52.012;8.724;2022-11-20T03:49:05;13.00;;;10.93;;
11222;SDS011;5668;52.012;8.724;2022-11-20T03:51:33;12.27;;;11.00;;
11222;SDS011;5668;52.012;8.724;2022-11-20T03:54:02;13.10;;;11.70;;
11222;SDS011;5668;52.012;8.724;2022-11-20T03:56:31;14.73;;;12.17;;
11222;SDS011;5668;52.012;8.724;2022-11-20T03:59:00;13.90;;;11.53;;
11222;SDS011;5668;52.012;8.724;2022-11-20T04:01:29;14.57;;;11.83;;
11222;SDS011;5668;52.012;8.724;2022-11-20T04:03:57;13.03;;;11.57;;
11222;SDS011;5668;52.012;8.724;2022-11-20T04:06:27;14.73;;;11.60;;
11222;SDS011;5668;52.012;8.724;2022-11-20T04:08:56;14.13;;;11.53;;
11222;SDS011;5668;52.012;8.724;2022-11-20T04:11:24;14.93;;;12.00;;
11222;SDS011;5668;52.012;8.724;2022-11-20T04:13:53;15.70;;;11.73;;
11222;SDS011;5668;52.012;8.724;2022-11-20T04:16:22;14.33;;;11.73;;
11222;SDS011;5668;52.012;8.724;2022-11-20T04:18:51;12.50;;;11.13;;
11222;SDS011;5668;52.012;8.724;2022-11-20T04:21:19;13.60;;;11.77;;
11222;SDS011;5668;52.012;8.724;2022-11-20T04:23:48;12.80;;;11.13;;
11222;SDS011;5668;52.012;8.724;2022-11-20T04:26:15;14.23;;;11.70;;
11222;SDS011;5668;52.012;8.724;2022-11-20T04:28:43;13.93;;;11.30;;
11222;SDS011;5668;52.012;8.724;2022-11-20T04:31:10;13.13;;;11.47;;
11222;SDS011;5668;52.012;8.724;2022-11-20T04:33:39;11.77;;;10.40;;
11222;SDS011;5668;52.012;8.724;2022-11-20T04:36:09;12.50;;;11.03;;
11222;SDS011;5668;52.012;8.724;2022-11-20T04:38:38;13.43;;;11.17;;
11222;SDS011;5668;52.012;8.724;2022-11-20T04:41:08;14.03;;;10.87;;
11222;SDS011;5668;52.012;8.724;2022-11-20T04:43:46;13.80;;;11.17;;
11222;SDS011;5668;52.012;8.724;2022-11-20T04:46:14;13.93;;;10.37;;
11222;SDS011;5668;52.012;8.724;2022-11-20T04:48:42;14.70;;;10.87;;
11222;SDS011;5668;52.012;8.724;2022-11-20T04:51:09;11.60;;;10.40;;
11222;SDS011;5668;52.012;8.724;2022-11-20T04:53:37;12.63;;;10.83;;
11222;SDS011;5668;52.012;8.724;2022-11-20T04:56:05;13.30;;;10.50;;
11222;SDS011;5668;52.012;8.724;2022-11-20T04:58:35;12.77;;;10.67;;
11222;SDS011;5668;52.012;8.724;2022-11-20T05:01:04;13.30;;;10.77;;
11222;SDS011;5668;52.012;8.724;2022-11-20T05:03:33;12.87;;;10.83;;
11222;SDS011;5668;52.012;8.724;2022-11-20T05:06:00;12.60;;;10.37;;
11222;SDS011;5668;52.012;8.724;2022-11-20T05:08:28;12.07;;;10.47;;
11222;SDS011;5668;52.012;8.724;2022-11-20T05:10:59;11.93;;;10.13;;
11222;SDS011;5668;52.012;8.724;2022-11-20T05:13:28;12.67;;;10.90;;
11222;SDS011;5668;52.012;8.724;2022-11-20T05:15:55;12.97;;;10.57;;
11222;SDS011;5668;52.012;8.724;2022-11-20T05:18:26;11.17;;;9.97;;
11222;SDS011;5668;52.012;8.724;2022-11-20T05:20:54;12.50;;;11.17;;
11222;SDS011;5668;52.012;8.724;2022-11-20T05:23:22;15.40;;;10.13;;
11222;SDS011;5668;52.012;8.724;2022-11-20T05:25:51;12.10;;;10.77;;
11222;SDS011;5668;52.012;8.724;2022-11-20T05:28:19;11.20;;;10.03;;
11222;SDS011;5668;52.012;8.724;2022-11-20T05:30:48;12.00;;;10.23;;
11222;SDS011;5668;52.012;8.724;2022-11-20T05:33:15;11.50;;;9.97;;
11222;SDS011;5668;52.012;8.724;2022-11-20T05:35:43;11.90;;;10.13;;
11222;SDS011;5668;52.012;8.724;2022-11-20T05:38:10;14.10;;;10.67;;
11222;SDS011;5668;52.012;8.724;2022-11-20T05:40:38;11.40;;;10.20;;
11222;SDS011;5668;52.012;8.724;2022-11-20T05:43:05;11.60;;;10.23;;
11222;SDS011;5668;52.012;8.724;2022-11-20T05:45:32;12.93;;;10.83;;
11222;SDS011;5668;52.012;8.724;2022-11-20T05:48:01;13.23;;;10.83;;
11222;SDS011;5668;52.012;8.724;2022-11-20T05:50:28;11.83;;;10.43;;
11222;SDS011;5668;52.012;8.724;2022-11-20T05:52:57;11.70;;;10.33;;
11222;SDS011;5668;52.012;8.724;2022-11-20T05:55:25;11.67;;;10.10;;
11222;SDS011;5668;52.012;8.724;2022-11-20T05:57:52;11.97;;;9.87;;
11222;SDS011;5668;52.012;8.724;2022-11-20T06:00:20;12.20;;;10.50;;
11222;SDS011;5668;52.012;8.724;2022-11-20T06:02:47;12.70;;;10.83;;
11222;SDS011;5668;52.012;8.724;2022-11-20T06:05:16;11.67;;;10.03;;
11222;SDS011;5668;52.012;8.724;2022-11-20T06:07:43;12.80;;;10.27;;
11222;SDS011;5668;52.012;8.724;2022-11-20T06:10:11;10.77;;;9.53;;
11222;SDS011;5668;52.012;8.724;2022-11-20T06:12:39;11.87;;;10.17;;
11222;SDS011;5668;52.012;8.724;2022-11-20T06:15:07;11.33;;;10.13;;
11222;SDS011;5668;52.012;8.724;2022-11-20T06:17:35;13.23;;;10.20;;
11222;SDS011;5668;52.012;8.724;2022-11-20T06:20:02;13.10;;;10.70;;
11222;SDS011;5668;52.012;8.724;2022-11-20T06:22:33;11.53;;;10.23;;
11222;SDS011;5668;52.012;8.724;2022-11-20T06:25:00;12.47;;;10.50;;
11222;SDS011;5668;52.012;8.724;2022-11-20T06:27:27;12.83;;;10.70;;
11222;SDS011;5668;52.012;8.724;2022-11-20T06:29:55;11.87;;;10.17;;
11222;SDS011;5668;52.012;8.724;2022-11-20T06:32:22;12.87;;;10.50;;
11222;SDS011;5668;52.012;8.724;2022-11-20T06:34:49;13.10;;;10.63;;
11222;SDS011;5668;52.012;8.724;2022-11-20T06:37:16;11.57;;;10.27;;
11222;SDS011;5668;52.012;8.724;2022-11-20T06:39:45;15.13;;;11.57;;
11222;SDS011;5668;52.012;8.724;2022-11-20T06:42:12;12.47;;;10.73;;
11222;SDS011;5668;52.012;8.724;2022-11-20T06:44:39;13.77;;;10.53;;
11222;SDS011;5668;52.012;8.724;2022-11-20T06:47:06;12.50;;;11.10;;
11222;SDS011;5668;52.012;8.724;2022-11-20T06:49:33;12.07;;;10.13;;
11222;SDS011;5668;52.012;8.724;2022-11-20T06:52:02;13.63;;;11.07;;
11222;SDS011;5668;52.012;8.724;2022-11-20T06:54:29;12.13;;;10.70;;
11222;SDS011;5668;52.012;8.724;2022-11-20T06:56:58;13.77;;;11.37;;
11222;SDS011;5668;52.012;8.724;2022-11-20T06:59:25;13.60;;;10.57;;
11222;SDS011;5668;52.012;8.724;2022-11-20T07:01:52;12.47;;;10.50;;
11222;SDS011;5668;52.012;8.724;2022-11-20T07:04:19;12.27;;;10.90;;
11222;SDS011;5668;52.012;8.724;2022-11-20T07:06:46;15.03;;;10.27;;
11222;SDS011;5668;52.012;8.724;2022-11-20T07:09:14;15.30;;;11.80;;
11222;SDS011;5668;52.012;8.724;2022-11-20T07:11:42;13.33;;;11.30;;
11222;SDS011;5668;52.012;8.724;2022-11-20T07:14:10;15.47;;;13.83;;
11222;SDS011;5668;52.012;8.724;2022-11-20T07:16:38;15.20;;;12.83;;
11222;SDS011;5668;52.012;8.724;2022-11-20T07:19:05;14.33;;;12.83;;
11222;SDS011;5668;52.012;8.724;2022-11-20T07:21:32;12.67;;;11.47;;
11222;SDS011;5668;52.012;8.724;2022-11-20T07:23:59;14.27;;;10.77;;
11222;SDS011;5668;52.012;8.724;2022-11-20T07:26:27;12.43;;;11.10;;
11222;SDS011;5668;52.012;8.724;2022-11-20T07:28:54;11.50;;;10.23;;
11222;SDS011;5668;52.012;8.724;2022-11-20T07:31:23;13.93;;;11.63;;
11222;SDS011;5668;52.012;8.724;2022-11-20T07:33:50;14.90;;;11.60;;
11222;SDS011;5668;52.012;8.724;2022-11-20T07:36:17;14.33;;;11.67;;
11222;SDS011;5668;52.012;8.724;2022-11-20T07:38:44;12.83;;;11.00;;
11222;SDS011;5668;52.012;8.724;2022-11-20T07:41:11;13.30;;;10.83;;
11222;SDS011;5668;52.012;8.724;2022-11-20T07:43:39;12.33;;;11.03;;
11222;SDS011;5668;52.012;8.724;2022-11-20T07:46:06;14.77;;;11.73;;
11222;SDS011;5668;52.012;8.724;2022-11-20T07:48:37;14.70;;;11.63;;
11222;SDS011;5668;52.012;8.724;2022-11-20T07:51:05;13.33;;;11.07;;
11222;SDS011;5668;52.012;8.724;2022-11-20T07:53:32;14.03;;;11.60;;
11222;SDS011;5668;52.012;8.724;2022-11-20T07:56:00;14.50;;;11.00;;
11222;SDS011;5668;52.012;8.724;2022-11-20T07:58:28;14.23;;;11.40;;
11222;SDS011;5668;52.012;8.724;2022-11-20T08:00:57;12.97;;;10.60;;
11222;SDS011;5668;52.012;8.724;2022-11-20T08:03:28;13.93;;;11.50;;
11222;SDS011;5668;52.012;8.724;2022-11-20T08:05:59;14.63;;;11.20;;
11222;SDS011;5668;52.012;8.724;2022-11-20T08:08:27;13.77;;;11.73;;
11222;SDS011;5668;52.012;8.724;2022-11-20T08:10:56;12.90;;;10.90;;
11222;SDS011;5668;52.012;8.724;2022-11-20T08:13:44;12.00;;;10.33;;
11222;SDS011;5668;52.012;8.724;2022-11-20T08:16:28;12.73;;;11.40;;
11222;SDS011;5668;52.012;8.724;2022-11-20T08:18:56;13.53;;;11.67;;
11222;SDS011;5668;52.012;8.724;2022-11-20T08:21:24;13.67;;;11.93;;
11222;SDS011;5668;52.012;8.724;2022-11-20T08:23:51;15.40;;;11.53;;
11222;SDS011;5668;52.012;8.724;2022-11-20T08:26:19;13.90;;;11.13;;
11222;SDS011;5668;52.012;8.724;2022-11-20T08:28:47;14.57;;;11.33;;
11222;SDS011;5668;52.012;8.724;2022-11-20T08:31:15;14.50;;;11.97;;
11222;SDS011;5668;52.012;8.724;2022-11-20T08:33:42;15.10;;;12.13;;
11222;SDS011;5668;52.012;8.724;2022-11-20T08:36:09;15.20;;;11.93;;
11222;SDS011;5668;52.012;8.724;2022-11-20T08:38:38;14.53;;;11.63;;
11222;SDS011;5668;52.012;8.724;2022-11-20T08:41:05;16.37;;;11.73;;
11222;SDS011;5668;52.012;8.724;2022-11-20T08:43:52;14.33;;;11.70;;
11222;SDS011;5668;52.012;8.724;2022-11-20T08:46:20;14.67;;;12.10;;
11222;SDS011;5668;52.012;8.724;2022-11-20T08:48:48;15.13;;;12.73;;
11222;SDS011;5668;52.012;8.724;2022-11-20T08:51:16;16.10;;;13.33;;
11222;SDS011;5668;52.012;8.724;2022-11-20T08:53:45;16.03;;;12.77;;
11222;SDS011;5668;52.012;8.724;2022-11-20T08:56:14;17.73;;;13.23;;
11222;SDS011;5668;52.012;8.724;2022-11-20T08:58:42;17.17;;;13.03;;
11222;SDS011;5668;52.012;8.724;2022-11-20T09:01:09;17.80;;;14.00;;
11222;SDS011;5668;52.012;8.724;2022-11-20T09:03:37;18.90;;;14.97;;
11222;SDS011;5668;52.012;8.724;2022-11-20T09:06:05;17.23;;;14.97;;
11222;SDS011;5668;52.012;8.724;2022-11-20T09:08:33;18.33;;;14.30;;
11222;SDS011;5668;52.012;8.724;2022-11-20T09:11:03;20.03;;;15.30;;
11222;SDS011;5668;52.012;8.724;2022-11-20T09:13:31;16.50;;;14.73;;
11222;SDS011;5668;52.012;8.724;2022-11-20T09:16:00;14.87;;;13.07;;
11222;SDS011;5668;52.012;8.724;2022-11-20T09:18:29;17.20;;;14.13;;
11222;SDS011;5668;52.012;8.724;2022-11-20T09:20:58;16.93;;;13.37;;
11222;SDS011;5668;52.012;8.724;2022-11-20T09:23:26;18.20;;;14.30;;
11222;SDS011;5668;52.012;8.724;2022-11-20T09:25:53;16.30;;;13.70;;
11222;SDS011;5668;52.012;8.724;2022-11-20T09:28:25;17.23;;;13.73;;
11222;SDS011;5668;52.012;8.724;2022-11-20T09:30:53;16.40;;;14.20;;
11222;SDS011;5668;52.012;8.724;2022-11-20T09:33:20;17.83;;;14.13;;
11222;SDS011;5668;52.012;8.724;2022-11-20T09:35:47;16.90;;;14.07;;
11222;SDS011;5668;52.012;8.724;2022-11-20T09:38:14;18.10;;;13.93;;
11222;SDS011;5668;52.012;8.724;2022-11-20T09:40:43;16.00;;;13.83;;
11222;SDS011;5668;52.012;8.724;2022-11-20T09:43:17;17.53;;;14.07;;
11222;SDS011;5668;52.012;8.724;2022-11-20T09:45:53;16.27;;;13.60;;
11222;SDS011;5668;52.012;8.724;2022-11-20T09:51:25;10.93;;;9.60;;
11222;SDS011;5668;52.012;8.724;2022-11-20T09:54:06;11.23;;;9.60;;
11222;SDS011;5668;52.012;8.724;2022-11-20T09:56:41;10.40;;;8.77;;
11222;SDS011;5668;52.012;8.724;2022-11-20T09:59:14;10.57;;;8.73;;
11222;SDS011;5668;52.012;8.724;2022-11-20T10:01:53;11.43;;;9.50;;
11222;SDS011;5668;52.012;8.724;2022-11-20T10:04:22;10.97;;;9.27;;
11222;SDS011;5668;52.012;8.724;2022-11-20T10:06:51;10.00;;;8.87;;
11222;SDS011;5668;52.012;8.724;2022-11-20T10:09:24;11.03;;;9.83;;
11222;SDS011;5668;52.012;8.724;2022-11-20T10:11:59;10.93;;;8.93;;
11222;SDS011;5668;52.012;8.724;2022-11-20T10:14:37;9.37;;;8.47;;
11222;SDS011;5668;52.012;8.724;2022-11-20T10:17:19;11.07;;;9.30;;
11222;SDS011;5668;52.012;8.724;2022-11-20T10:20:10;10.53;;;8.77;;
11222;SDS011;5668;52.012;8.724;2022-11-20T10:22:49;10.53;;;8.77;;
11222;SDS011;5668;52.012;8.724;2022-11-20T10:25:30;9.03;;;7.87;;
11222;SDS011;5668;52.012;8.724;2022-11-20T10:28:09;9.73;;;8.20;;
11222;SDS011;5668;52.012;8.724;2022-11-20T10:30:51;10.13;;;8.67;;
11222;SDS011;5668;52.012;8.724;2022-11-20T10:33:27;10.47;;;9.10;;
11222;SDS011;5668;52.012;8.724;2022-11-20T10:36:00;10.57;;;8.60;;
11222;SDS011;5668;52.012;8.724;2022-11-20T10:38:39;10.30;;;8.10;;
11222;SDS011;5668;52.012;8.724;2022-11-20T10:41:12;9.70;;;8.40;;
11222;SDS011;5668;52.012;8.724;2022-11-20T10:43:53;8.13;;;7.30;;
11222;SDS011;5668;52.012;8.724;2022-11-20T10:46:29;9.03;;;8.07;;
11222;SDS011;5668;52.012;8.724;2022-11-20T10:49:09;9.83;;;8.83;;
11222;SDS011;5668;52.012;8.724;2022-11-20T10:51:40;9.10;;;8.13;;
11222;SDS011;5668;52.012;8.724;2022-11-20T10:54:20;9.07;;;8.13;;
11222;SDS011;5668;52.012;8.724;2022-11-20T10:56:53;8.83;;;7.87;;
11222;SDS011;5668;52.012;8.724;2022-11-20T10:59:30;10.13;;;8.33;;
11222;SDS011;5668;52.012;8.724;2022-11-20T11:02:17;10.63;;;9.23;;
11222;SDS011;5668;52.012;8.724;2022-11-20T11:04:48;9.67;;;8.57;;
11222;SDS011;5668;52.012;8.724;2022-11-20T11:07:17;9.90;;;8.87;;
11222;SDS011;5668;52.012;8.724;2022-11-20T11:09:48;9.70;;;8.77;;
11222;SDS011;5668;52.012;8.724;2022-11-20T11:12:18;8.80;;;7.87;;
11222;SDS011;5668;52.012;8.724;2022-11-20T11:14:47;9.20;;;7.70;;
11222;SDS011;5668;52.012;8.724;2022-11-20T11:17:26;7.97;;;7.17;;
11222;SDS011;5668;52.012;8.724;2022-11-20T11:20:14;9.00;;;7.30;;
11222;SDS011;5668;52.012;8.724;2022-11-20T11:22:45;8.83;;;7.20;;
11222;SDS011;5668;52.012;8.724;2022-11-20T11:25:24;8.40;;;7.03;;
11222;SDS011;5668;52.012;8.724;2022-11-20T11:27:53;7.67;;;6.73;;
11222;SDS011;5668;52.012;8.724;2022-11-20T11:30:23;7.67;;;6.13;;
11222;SDS011;5668;52.012;8.724;2022-11-20T11:33:01;6.57;;;5.87;;
11222;SDS011;5668;52.012;8.724;2022-11-20T11:35:32;7.30;;;6.50;;
11222;SDS011;5668;52.012;8.724;2022-11-20T11:38:05;6.33;;;5.70;;
11222;SDS011;5668;52.012;8.724;2022-11-20T11:40:56;6.93;;;6.07;;
11222;SDS011;5668;52.012;8.724;2022-11-20T11:43:29;7.00;;;6.00;;
11222;SDS011;5668;52.012;8.724;2022-11-20T11:46:30;6.80;;;5.93;;
11222;SDS011;5668;52.012;8.724;2022-11-20T11:49:08;7.03;;;5.90;;
11222;SDS011;5668;52.012;8.724;2022-11-20T11:51:47;6.20;;;5.40;;
11222;SDS011;5668;52.012;8.724;2022-11-20T11:54:28;6.90;;;5.70;;
11222;SDS011;5668;52.012;8.724;2022-11-20T11:57:01;6.93;;;5.70;;
11222;SDS011;5668;52.012;8.724;2022-11-20T11:59:41;6.20;;;5.60;;
11222;SDS011;5668;52.012;8.724;2022-11-20T12:02:23;5.63;;;5.03;;
11222;SDS011;5668;52.012;8.724;2022-11-20T12:04:59;7.37;;;6.33;;
11222;SDS011;5668;52.012;8.724;2022-11-20T12:07:40;6.73;;;6.13;;
11222;SDS011;5668;52.012;8.724;2022-11-20T12:13:01;7.10;;;5.80;;
11222;SDS011;5668;52.012;8.724;2022-11-20T12:15:37;6.43;;;5.80;;
11222;SDS011;5668;52.012;8.724;2022-11-20T12:18:12;6.30;;;5.67;;
11222;SDS011;5668;52.012;8.724;2022-11-20T12:20:44;6.07;;;5.47;;
11222;SDS011;5668;52.012;8.724;2022-11-20T12:23:20;6.73;;;5.80;;
11222;SDS011;5668;52.012;8.724;2022-11-20T12:25:54;6.27;;;5.60;;
11222;SDS011;5668;52.012;8.724;2022-11-20T12:28:36;6.80;;;6.03;;
11222;SDS011;5668;52.012;8.724;2022-11-20T12:31:17;6.37;;;5.77;;
11222;SDS011;5668;52.012;8.724;2022-11-20T12:34:10;6.83;;;6.07;;
11222;SDS011;5668;52.012;8.724;2022-11-20T12:37:00;6.80;;;6.10;;
11222;SDS011;5668;52.012;8.724;2022-11-20T12:39:38;7.63;;;6.00;;
11222;SDS011;5668;52.012;8.724;2022-11-20T12:42:12;6.10;;;5.50;;
11222;SDS011;5668;52.012;8.724;2022-11-20T12:45:12;6.10;;;5.47;;
11222;SDS011;5668;52.012;8.724;2022-11-20T12:48:01;7.30;;;6.17;;
11222;SDS011;5668;52.012;8.724;2022-11-20T12:50:48;6.47;;;5.87;;
11222;SDS011;5668;52.012;8.724;2022-11-20T12:53:33;6.70;;;5.80;;
11222;SDS011;5668;52.012;8.724;2022-11-20T12:56:14;6.23;;;5.63;;
11222;SDS011;5668;52.012;8.724;2022-11-20T12:58:50;8.13;;;6.40;;
11222;SDS011;5668;52.012;8.724;2022-11-20T13:01:29;6.87;;;6.17;;
11222;SDS011;5668;52.012;8.724;2022-11-20T13:04:13;6.40;;;5.80;;
11222;SDS011;5668;52.012;8.724;2022-11-20T13:06:48;8.17;;;7.37;;
11222;SDS011;5668;52.012;8.724;2022-11-20T13:09:16;9.00;;;7.47;;
11222;SDS011;5668;52.012;8.724;2022-11-20T13:11:50;8.50;;;7.50;;
11222;SDS011;5668;52.012;8.724;2022-11-20T13:14:31;7.83;;;6.57;;
11222;SDS011;5668;52.012;8.724;2022-11-20T13:17:04;7.90;;;6.40;;
11222;SDS011;5668;52.012;8.724;2022-11-20T13:19:37;8.97;;;7.00;;
11222;SDS011;5668;52.012;8.724;2022-11-20T13:22:05;8.63;;;7.10;;
11222;SDS011;5668;52.012;8.724;2022-11-20T13:24:34;8.47;;;6.93;;
11222;SDS011;5668;52.012;8.724;2022-11-20T13:27:04;8.27;;;6.90;;
11222;SDS011;5668;52.012;8.724;2022-11-20T13:29:45;9.37;;;7.53;;
11222;SDS011;5668;52.012;8.724;2022-11-20T13:32:24;8.30;;;7.10;;
11222;SDS011;5668;52.012;8.724;2022-11-20T13:34:53;8.00;;;7.20;;
11222;SDS011;5668;52.012;8.724;2022-11-20T13:37:25;8.00;;;7.20;;
11222;SDS011;5668;52.012;8.724;2022-11-20T13:40:04;10.40;;;7.97;;
11222;SDS011;5668;52.012;8.724;2022-11-20T13:42:43;9.17;;;7.73;;
11222;SDS011;5668;52.012;8.724;2022-11-20T13:45:20;10.00;;;7.93;;
11222;SDS011;5668;52.012;8.724;2022-11-20T13:47:50;9.37;;;7.93;;
11222;SDS011;5668;52.012;8.724;2022-11-20T13:50:19;10.20;;;8.37;;
11222;SDS011;5668;52.012;8.724;2022-11-20T13:52:58;9.20;;;7.93;;
11222;SDS011;5668;52.012;8.724;2022-11-20T13:55:35;9.73;;;8.53;;
11222;SDS011;5668;52.012;8.724;2022-11-20T13:58:23;10.57;;;8.40;;
11222;SDS011;5668;52.012;8.724;2022-11-20T14:00:57;10.10;;;8.07;;
11222;SDS011;5668;52.012;8.724;2022-11-20T14:03:29;9.13;;;7.70;;
11222;SDS011;5668;52.012;8.724;2022-11-20T14:06:01;10.37;;;8.27;;
11222;SDS011;5668;52.012;8.724;2022-11-20T14:08:31;10.03;;;7.70;;
11222;SDS011;5668;52.012;8.724;2022-11-20T14:11:04;8.70;;;7.57;;
11222;SDS011;5668;52.012;8.724;2022-11-20T14:13:49;11.03;;;8.53;;
11222;SDS011;5668;52.012;8.724;2022-11-20T14:16:19;10.47;;;8.07;;
11222;SDS011;5668;52.012;8.724;2022-11-20T14:18:50;9.43;;;8.43;;
11222;SDS011;5668;52.012;8.724;2022-11-20T14:21:21;11.00;;;9.67;;
11222;SDS011;5668;52.012;8.724;2022-11-20T14:23:51;12.23;;;9.57;;
11222;SDS011;5668;52.012;8.724;2022-11-20T14:26:20;13.07;;;9.50;;
11222;SDS011;5668;52.012;8.724;2022-11-20T14:28:49;11.07;;;9.70;;
11222;SDS011;5668;52.012;8.724;2022-11-20T14:31:19;12.20;;;9.80;;
11222;SDS011;5668;52.012;8.724;2022-11-20T14:33:50;13.80;;;10.07;;
11222;SDS011;5668;52.012;8.724;2022-11-20T14:36:19;11.13;;;9.70;;
11222;SDS011;5668;52.012;8.724;2022-11-20T14:38:48;12.87;;;10.50;;
11222;SDS011;5668;52.012;8.724;2022-11-20T14:41:17;13.20;;;11.10;;
11222;SDS011;5668;52.012;8.724;2022-11-20T14:43:46;15.80;;;11.50;;
11222;SDS011;5668;52.012;8.724;2022-11-20T14:46:19;14.03;;;11.03;;
11222;SDS011;5668;52.012;8.724;2022-11-20T14:48:48;15.97;;;11.80;;
11222;SDS011;5668;52.012;8.724;2022-11-20T14:51:26;15.10;;;11.10;;
11222;SDS011;5668;52.012;8.724;2022-11-20T14:54:07;14.03;;;11.47;;
11222;SDS011;5668;52.012;8.724;2022-11-20T14:56:35;13.30;;;11.23;;
11222;SDS011;5668;52.012;8.724;2022-11-20T14:59:03;13.10;;;10.80;;
11222;SDS011;5668;52.012;8.724;2022-11-20T15:01:32;14.23;;;11.13;;
11222;SDS011;5668;52.012;8.724;2022-11-20T15:04:01;14.63;;;11.80;;
11222;SDS011;5668;52.012;8.724;2022-11-20T15:06:31;15.77;;;11.83;;
11222;SDS011;5668;52.012;8.724;2022-11-20T15:08:58;14.27;;;11.03;;